createdAt,value
2019-02-21T00:01:23.111Z,101.58
2019-02-21T00:04:18.988Z,93.97
2019-02-21T00:07:14.194Z,102.55
2019-02-21T00:10:09.456Z,116.75
2019-02-21T00:13:04.612Z,118.35
2019-02-21T00:16:00.222Z,124.20
2019-02-21T00:18:55.450Z,103.72
2019-02-21T00:21:50.697Z,117.50
2019-02-21T00:24:46.232Z,123.13
2019-02-21T00:27:41.947Z,131.85
2019-02-21T00:30:37.140Z,125.00
2019-02-21T00:33:32.245Z,129.12
2019-02-21T00:36:29.101Z,118.95
2019-02-21T00:39:24.252Z,104.30
2019-02-21T00:42:19.826Z,98.37
2019-02-21T00:45:17.018Z,112.70
2019-02-21T00:48:12.262Z,100.55
2019-02-21T00:51:07.629Z,93.17
2019-02-21T00:54:02.509Z,101.95
2019-02-21T00:56:57.998Z,99.00
2019-02-21T00:59:54.517Z,132.05
2019-02-21T01:02:49.566Z,120.85
2019-02-21T01:05:45.348Z,137.35
2019-02-21T01:08:40.228Z,183.27
2019-02-21T01:11:36.010Z,182.07
2019-02-21T01:14:31.114Z,176.60
2019-02-21T01:17:26.258Z,183.82
2019-02-21T01:20:21.626Z,191.60
2019-02-21T01:23:16.841Z,204.97
2019-02-21T01:26:11.995Z,343.45
2019-02-21T01:29:07.127Z,209.72
2019-02-21T01:32:02.043Z,265.77
2019-02-21T01:34:57.850Z,217.43
2019-02-21T01:37:52.907Z,227.40
2019-02-21T01:40:48.254Z,227.18
2019-02-21T01:43:43.539Z,218.78
2019-02-21T01:46:38.514Z,211.37
2019-02-21T01:49:33.710Z,202.93
2019-02-21T01:52:28.778Z,236.40
2019-02-21T01:55:23.882Z,205.77
2019-02-21T01:58:18.803Z,205.62
2019-02-21T02:01:15.147Z,186.03
2019-02-21T02:04:11.940Z,187.47
2019-02-21T02:07:07.111Z,208.00
2019-02-21T02:10:02.070Z,165.60
2019-02-21T02:12:57.109Z,181.00
2019-02-21T02:15:52.434Z,171.55
2019-02-21T02:18:48.006Z,166.47
2019-02-21T02:21:44.927Z,174.53
2019-02-21T02:24:40.253Z,185.15
2019-02-21T02:27:35.491Z,171.00
2019-02-21T02:30:32.426Z,182.53
2019-02-21T02:33:27.731Z,188.85
2019-02-21T02:36:23.505Z,182.17
2019-02-21T02:39:18.371Z,177.78
2019-02-21T02:42:13.515Z,166.85
2019-02-21T02:45:08.802Z,160.78
2019-02-21T02:48:04.233Z,156.95
2019-02-21T02:50:59.327Z,167.10
2019-02-21T02:53:54.390Z,154.42
2019-02-21T02:56:49.736Z,171.62
2019-02-21T02:59:45.970Z,176.02
2019-02-21T03:02:40.855Z,173.78
2019-02-21T03:05:37.250Z,168.45
2019-02-21T03:08:34.440Z,162.22
2019-02-21T03:11:29.947Z,162.77
2019-02-21T03:14:25.177Z,168.15
2019-02-21T03:17:20.065Z,156.67
2019-02-21T03:20:16.680Z,154.78
2019-02-21T03:23:11.984Z,154.15
2019-02-21T03:26:07.098Z,162.15
2019-02-21T03:29:02.467Z,147.95
2019-02-21T03:32:01.306Z,156.18
2019-02-21T03:34:58.496Z,167.57
2019-02-21T03:37:54.449Z,171.28
2019-02-21T03:40:50.075Z,140.65
2019-02-21T03:43:45.211Z,140.92
2019-02-21T03:46:42.807Z,140.28
2019-02-21T03:49:37.953Z,134.00
2019-02-21T03:52:33.733Z,135.88
2019-02-21T03:55:30.254Z,147.20
2019-02-21T03:58:26.183Z,141.82
2019-02-21T04:01:21.212Z,131.03
2019-02-21T04:04:16.311Z,131.32
2019-02-21T04:07:11.694Z,125.45
2019-02-21T04:10:07.103Z,106.97
2019-02-21T04:13:05.395Z,131.12
2019-02-21T04:16:00.856Z,127.27
2019-02-21T04:18:56.405Z,147.68
2019-02-21T04:21:51.538Z,126.07
2019-02-21T04:24:47.246Z,110.70
2019-02-21T04:27:49.586Z,140.70
2019-02-21T04:30:45.698Z,134.52
2019-02-21T04:33:41.743Z,116.90
2019-02-21T04:36:37.573Z,129.03
2019-02-21T04:39:40.231Z,133.43
2019-02-21T04:42:39.885Z,123.28
2019-02-21T04:45:39.732Z,114.03
2019-02-21T04:48:35.675Z,114.72
2019-02-21T04:51:31.737Z,122.58
2019-02-21T04:54:26.458Z,140.12
2019-02-21T04:57:21.324Z,119.25
2019-02-21T05:00:18.357Z,103.42
2019-02-21T05:03:15.055Z,97.27
2019-02-21T05:06:10.746Z,69.25
2019-02-21T05:09:07.668Z,96.55
2019-02-21T05:12:06.969Z,68.02
2019-02-21T05:15:04.286Z,88.92
2019-02-21T05:17:59.599Z,83.87
2019-02-21T05:21:27.767Z,76.57
2019-02-21T05:24:34.237Z,96.67
2019-02-21T05:27:45.505Z,92.00
2019-02-21T05:31:39.639Z,99.75
2019-02-21T05:34:54.753Z,105.17
2019-02-21T05:37:57.616Z,109.78
2019-02-21T05:41:17.724Z,72.00
2019-02-21T05:44:29.138Z,65.20
2019-02-21T05:47:46.573Z,77.58
2019-02-21T05:50:47.923Z,82.25
2019-02-21T05:54:17.038Z,84.25
2019-02-21T05:57:39.432Z,70.40
2019-02-21T06:01:11.374Z,60.28
2019-02-21T06:04:23.648Z,68.80
2019-02-21T06:07:42.677Z,72.60
2019-02-21T06:11:17.994Z,97.97
2019-02-21T06:14:40.756Z,71.50
2019-02-21T06:19:07.513Z,75.28
2019-02-21T06:22:31.319Z,65.30
2019-02-21T06:26:06.387Z,68.07
2019-02-21T06:29:27.836Z,61.75
2019-02-21T06:32:24.254Z,61.68
2019-02-21T06:35:24.234Z,63.60
2019-02-21T06:38:23.579Z,58.48
2019-02-21T06:41:24.398Z,60.50
2019-02-21T06:44:23.764Z,57.55
2019-02-21T06:47:24.612Z,54.25
2019-02-21T06:50:27.041Z,65.80
2019-02-21T06:53:26.118Z,57.25
2019-02-21T06:56:22.976Z,47.58
2019-02-21T06:59:20.401Z,54.93
2019-02-21T07:02:20.241Z,55.60
2019-02-21T07:05:22.154Z,56.40
2019-02-21T07:08:19.914Z,51.77
2019-02-21T07:11:16.097Z,49.83
2019-02-21T07:14:12.634Z,48.52
2019-02-21T07:17:09.656Z,49.88
2019-02-21T07:20:08.240Z,46.63
2019-02-21T07:23:07.684Z,48.87
2019-02-21T07:26:07.321Z,47.93
2019-02-21T07:29:07.168Z,49.10
2019-02-21T07:32:04.076Z,43.65
2019-02-21T07:35:16.220Z,54.77
2019-02-21T07:38:11.925Z,52.05
2019-02-21T07:41:08.274Z,42.13
2019-02-21T07:44:12.053Z,40.80
2019-02-21T07:47:04.754Z,44.40
2019-02-21T07:50:15.910Z,57.20
2019-02-21T07:53:16.436Z,46.68
2019-02-21T07:56:12.911Z,43.83
2019-02-21T07:59:11.926Z,43.87
2019-02-21T08:02:05.706Z,42.00
2019-02-21T08:05:02.470Z,46.68
2019-02-21T08:07:58.354Z,48.45
2019-02-21T08:11:11.974Z,40.15
2019-02-21T08:14:26.539Z,45.70
2019-02-21T08:17:17.662Z,57.15
2019-02-21T08:20:15.499Z,39.15
2019-02-21T08:23:19.015Z,47.58
2019-02-21T08:26:46.620Z,42.93
2019-02-21T08:29:52.213Z,46.75
2019-02-21T08:33:20.640Z,52.53
2019-02-21T08:36:18.859Z,48.38
2019-02-21T08:39:14.859Z,72.32
2019-02-21T08:42:12.668Z,45.00
2019-02-21T08:45:11.556Z,52.60
2019-02-21T08:48:08.934Z,52.20
2019-02-21T08:51:11.881Z,57.60
2019-02-21T08:54:17.601Z,53.45
2019-02-21T08:57:13.775Z,48.83
2019-02-21T09:00:10.982Z,55.17
2019-02-21T09:03:23.454Z,54.05
2019-02-21T09:06:20.321Z,49.30
2019-02-21T09:09:15.789Z,65.12
2019-02-21T09:12:11.414Z,55.33
2019-02-21T09:15:06.988Z,59.13
2019-02-21T09:18:16.107Z,56.05
2019-02-21T09:21:41.241Z,61.70
2019-02-21T09:24:47.698Z,58.05
2019-02-21T09:27:59.747Z,62.35
2019-02-21T09:30:56.594Z,58.68
2019-02-21T09:33:54.087Z,56.53
2019-02-21T09:36:51.549Z,60.10
2019-02-21T09:39:51.054Z,58.70
2019-02-21T09:42:49.630Z,58.15
2019-02-21T09:45:46.408Z,71.17
2019-02-21T09:49:03.084Z,55.85
2019-02-21T09:51:59.287Z,68.92
2019-02-21T09:54:57.360Z,88.27
2019-02-21T09:57:53.994Z,80.55
2019-02-21T10:01:07.797Z,64.60
2019-02-21T10:05:04.176Z,84.97
2019-02-21T10:13:38.219Z,68.85
2019-02-21T10:17:05.511Z,81.70
2019-02-21T10:24:50.867Z,104.47
2019-02-21T10:27:47.474Z,84.87
2019-02-21T10:30:45.848Z,77.25
2019-02-21T10:33:47.118Z,88.03
2019-02-21T10:36:37.923Z,82.10
2019-02-21T10:39:33.817Z,74.82
2019-02-21T10:42:32.472Z,98.50
2019-02-21T10:45:28.689Z,75.37
2019-02-21T10:48:25.060Z,72.20
2019-02-21T10:51:23.050Z,72.27
2019-02-21T10:54:20.589Z,57.40
2019-02-21T10:57:17.081Z,76.67
2019-02-21T11:00:18.095Z,64.55
2019-02-21T11:03:14.129Z,74.75
2019-02-21T11:06:15.949Z,78.05
2019-02-21T11:09:16.653Z,67.47
2019-02-21T11:12:14.677Z,79.45
2019-02-21T11:15:12.601Z,86.95
2019-02-21T11:18:08.458Z,88.87
2019-02-21T11:21:06.783Z,69.60
2019-02-21T11:24:03.724Z,64.40
2019-02-21T11:27:00.011Z,65.25
2019-02-21T11:29:59.051Z,79.45
2019-02-21T11:32:54.626Z,71.85
2019-02-21T11:35:51.568Z,63.40
2019-02-21T11:38:48.982Z,62.38
2019-02-21T11:41:44.681Z,68.85
2019-02-21T11:44:40.902Z,74.77
2019-02-21T11:47:36.362Z,69.53
2019-02-21T11:50:35.013Z,79.65
2019-02-21T11:53:30.706Z,101.72
2019-02-21T11:56:28.509Z,88.87
2019-02-21T11:59:29.169Z,103.87
2019-02-21T12:02:38.836Z,113.70
2019-02-21T12:05:31.302Z,90.38
2019-02-21T12:08:24.489Z,86.08
2019-02-21T12:11:20.857Z,81.17
2019-02-21T12:14:17.505Z,73.02
2019-02-21T12:17:42.549Z,86.05
2019-02-21T12:20:41.246Z,110.25
2019-02-21T12:33:59.568Z,84.85
2019-02-21T12:37:13.488Z,119.25
2019-02-21T12:41:11.630Z,92.92
2019-02-21T12:44:33.934Z,122.72
2019-02-21T12:47:49.721Z,123.30
2019-02-21T12:50:43.978Z,126.38
2019-02-21T12:53:32.279Z,133.05
2019-02-21T12:56:28.227Z,145.97
2019-02-21T12:59:23.972Z,119.55
2019-02-21T13:02:19.743Z,138.28
2019-02-21T13:05:15.216Z,145.07
2019-02-21T13:08:13.165Z,163.07
2019-02-21T13:11:08.681Z,163.32
2019-02-21T13:14:04.082Z,185.63
2019-02-21T13:16:59.341Z,162.03
2019-02-21T13:19:54.487Z,145.85
2019-02-21T13:22:51.042Z,159.52
2019-02-21T13:25:46.549Z,161.30
2019-02-21T13:28:41.980Z,182.53
2019-02-21T13:31:37.190Z,168.60
2019-02-21T13:34:33.085Z,129.00
2019-02-21T13:37:29.192Z,154.53
2019-02-21T13:40:24.485Z,199.07
2019-02-21T13:43:20.304Z,202.85
2019-02-21T13:46:16.705Z,226.92
2019-02-21T13:49:12.028Z,247.45
2019-02-21T13:52:08.273Z,237.38
2019-02-21T13:55:04.116Z,210.48
2019-02-21T13:57:59.863Z,237.15
2019-02-21T14:00:56.609Z,228.32
2019-02-21T14:03:51.810Z,227.87
2019-02-21T14:06:46.937Z,251.67
2019-02-21T14:09:42.342Z,260.15
2019-02-21T14:12:38.151Z,262.25
2019-02-21T14:15:46.481Z,297.35
2019-02-21T14:18:42.708Z,294.43
2019-02-21T14:21:50.179Z,323.82
2019-02-21T14:24:46.601Z,288.00
2019-02-21T14:27:42.748Z,318.77
2019-02-21T14:30:38.083Z,291.27
2019-02-21T14:33:33.996Z,237.72
2019-02-21T14:36:32.556Z,244.10
2019-02-21T14:39:27.840Z,265.85
2019-02-21T14:42:23.016Z,268.50
2019-02-21T14:45:19.454Z,253.35
2019-02-21T14:48:14.766Z,230.32
2019-02-21T14:51:10.488Z,257.40
2019-02-21T14:54:05.452Z,245.35
2019-02-21T14:57:01.434Z,235.35
2019-02-21T14:59:56.504Z,237.42
2019-02-21T15:02:52.133Z,252.87
2019-02-21T15:05:47.216Z,223.13
2019-02-21T15:08:42.803Z,213.90
2019-02-21T15:11:37.894Z,214.88
2019-02-21T15:14:33.394Z,205.60
2019-02-21T15:17:29.131Z,210.60
2019-02-21T15:20:35.884Z,209.20
2019-02-21T15:23:21.380Z,239.70
2019-02-21T15:26:17.394Z,262.65
2019-02-21T15:29:13.265Z,261.98
2019-02-21T15:32:11.601Z,310.55
2019-02-21T15:35:06.160Z,295.90
2019-02-21T15:38:02.863Z,278.83
2019-02-21T15:40:58.204Z,269.48
2019-02-21T15:43:53.235Z,262.20
2019-02-21T15:46:48.443Z,300.05
2019-02-21T15:49:43.702Z,277.93
2019-02-21T15:52:39.045Z,274.77
2019-02-21T15:55:34.957Z,319.10
2019-02-21T15:58:29.671Z,379.82
2019-02-21T16:01:25.400Z,326.88
2019-02-21T16:04:23.250Z,221.45
2019-02-21T16:07:20.926Z,268.57
2019-02-21T16:10:18.286Z,283.50
2019-02-21T16:13:13.709Z,303.00
2019-02-21T16:16:08.663Z,260.13
2019-02-21T16:19:03.974Z,240.75
2019-02-21T16:21:59.905Z,230.32
2019-02-21T16:24:57.988Z,270.12
2019-02-21T16:27:50.107Z,255.03
2019-02-21T16:30:45.560Z,257.35
2019-02-21T16:33:41.490Z,261.10
2019-02-21T16:36:37.005Z,305.62
2019-02-21T16:39:33.114Z,303.35
2019-02-21T16:42:32.318Z,314.68
2019-02-21T16:45:42.382Z,328.95
2019-02-21T16:48:26.076Z,330.45
2019-02-21T16:51:22.248Z,309.52
2019-02-21T16:54:16.611Z,365.00
2019-02-21T16:57:14.135Z,332.62
2019-02-21T17:00:09.896Z,375.43
2019-02-21T17:03:08.992Z,352.77
2019-02-21T17:06:10.568Z,318.80
2019-02-21T17:09:07.830Z,327.45
2019-02-21T17:12:03.525Z,270.77
2019-02-21T17:14:59.248Z,296.73
2019-02-21T17:18:03.881Z,327.73
2019-02-21T17:20:57.943Z,303.18
2019-02-21T17:23:59.656Z,277.82
2019-02-21T17:26:51.763Z,273.02
2019-02-21T17:29:46.836Z,269.80
2019-02-21T17:32:41.829Z,287.08
2019-02-21T17:35:36.959Z,327.25
2019-02-21T17:38:32.014Z,378.73
2019-02-21T17:41:26.958Z,336.90
2019-02-21T17:44:21.721Z,355.73
2019-02-21T17:47:17.136Z,340.32
2019-02-21T17:50:12.761Z,346.25
2019-02-21T17:53:07.668Z,322.45
2019-02-21T17:56:02.443Z,305.15
2019-02-21T17:58:58.437Z,306.43
2019-02-21T18:01:53.501Z,338.90
2019-02-21T18:04:48.445Z,278.62
2019-02-21T18:07:43.445Z,302.80
2019-02-21T18:10:38.425Z,272.35
2019-02-21T18:13:33.673Z,250.62
2019-02-21T18:16:28.632Z,271.37
2019-02-21T18:19:23.720Z,263.95
2019-02-21T18:22:18.544Z,240.28
2019-02-21T18:25:16.685Z,275.35
2019-02-21T18:28:11.889Z,262.25
2019-02-21T18:31:07.045Z,271.62
2019-02-21T18:34:01.873Z,240.80
2019-02-21T18:36:56.467Z,265.73
2019-02-21T18:39:51.100Z,251.92
2019-02-21T18:42:45.936Z,212.12
2019-02-21T18:45:40.571Z,189.65
2019-02-21T18:48:36.588Z,161.20
2019-02-21T18:51:32.598Z,173.97
2019-02-21T18:54:27.547Z,221.40
2019-02-21T18:57:22.590Z,175.15
2019-02-21T19:00:20.059Z,165.32
2019-02-21T19:03:15.283Z,158.30
2019-02-21T19:06:10.012Z,172.85
2019-02-21T19:09:06.250Z,167.03
2019-02-21T19:12:01.162Z,151.63
2019-02-21T19:14:56.217Z,165.47
2019-02-21T19:17:51.373Z,143.37
2019-02-21T19:20:46.426Z,148.78
2019-02-21T19:23:41.581Z,152.82
2019-02-21T19:26:36.586Z,147.90
2019-02-21T19:29:31.440Z,147.28
2019-02-21T19:32:26.468Z,164.65
2019-02-21T19:35:22.145Z,162.22
2019-02-21T19:38:16.736Z,167.62
2019-02-21T19:41:12.139Z,159.25
2019-02-21T19:44:09.166Z,170.92
2019-02-21T19:47:03.397Z,158.72
2019-02-21T19:49:58.469Z,166.30
2019-02-21T19:52:53.892Z,148.62
2019-02-21T19:55:48.799Z,147.53
2019-02-21T19:58:43.765Z,149.87
2019-02-21T20:01:39.192Z,143.13
2019-02-21T20:04:34.077Z,146.15
2019-02-21T20:07:29.381Z,137.68
2019-02-21T20:10:25.052Z,130.93
2019-02-21T20:13:19.988Z,126.05
2019-02-21T20:16:15.012Z,128.27
2019-02-21T20:19:09.665Z,114.88
2019-02-21T20:22:04.451Z,126.87
2019-02-21T20:24:59.751Z,119.02
2019-02-21T20:27:55.605Z,116.28
2019-02-21T20:30:51.226Z,121.72
2019-02-21T20:33:47.729Z,126.70
2019-02-21T20:36:50.747Z,128.62
2019-02-21T20:39:38.181Z,241.68
2019-02-21T20:42:33.202Z,142.98
2019-02-21T20:45:28.235Z,140.45
2019-02-21T20:48:23.059Z,125.18
2019-02-21T20:51:17.710Z,112.25
2019-02-21T20:54:13.004Z,106.92
2019-02-21T20:57:08.295Z,105.43
2019-02-21T21:00:04.414Z,105.72
2019-02-21T21:02:59.617Z,119.77
2019-02-21T21:05:54.994Z,111.85
2019-02-21T21:08:50.255Z,128.93
2019-02-21T21:11:45.015Z,107.83
2019-02-21T21:14:40.257Z,104.40
2019-02-21T21:17:35.123Z,104.45
2019-02-21T21:20:30.903Z,113.95
2019-02-21T21:23:25.787Z,114.92
2019-02-21T21:26:20.643Z,104.40
2019-02-21T21:29:15.925Z,106.85
2019-02-21T21:32:11.639Z,106.32
2019-02-21T21:35:06.658Z,104.40
2019-02-21T21:38:01.430Z,115.08
2019-02-21T21:40:56.257Z,112.83
2019-02-21T21:43:52.037Z,107.72
2019-02-21T21:46:47.169Z,97.00
2019-02-21T21:49:42.923Z,105.55
2019-02-21T21:52:37.776Z,98.92
2019-02-21T21:55:33.646Z,99.87
2019-02-21T21:58:28.932Z,104.60
2019-02-21T22:01:24.672Z,107.03
2019-02-21T22:04:21.131Z,92.00
2019-02-21T22:07:16.401Z,97.10
2019-02-21T22:10:14.021Z,104.23
2019-02-21T22:13:09.018Z,100.82
2019-02-21T22:16:04.386Z,97.92
2019-02-21T22:18:59.190Z,102.85
2019-02-21T22:21:53.947Z,104.83
2019-02-21T22:24:49.270Z,106.65
2019-02-21T22:27:44.810Z,94.13
2019-02-21T22:30:40.033Z,95.15
2019-02-21T22:33:36.399Z,97.57
2019-02-21T22:36:31.519Z,114.47
2019-02-21T22:39:26.502Z,95.92
2019-02-21T22:42:21.926Z,110.90
2019-02-21T22:45:17.174Z,112.85
2019-02-21T22:48:12.037Z,115.57
2019-02-21T22:51:07.918Z,111.85
2019-02-21T22:54:02.748Z,120.45
2019-02-21T22:56:57.664Z,123.92
2019-02-21T22:59:52.869Z,112.03
2019-02-21T23:02:47.809Z,120.60
2019-02-21T23:06:21.287Z,125.92
2019-02-21T23:09:26.870Z,134.65
2019-02-21T23:12:17.165Z,133.55
2019-02-21T23:15:13.620Z,129.10
2019-02-21T23:18:09.243Z,131.95
2019-02-21T23:21:04.779Z,135.65
2019-02-21T23:24:00.237Z,141.55
2019-02-21T23:26:55.545Z,128.97
2019-02-21T23:29:51.305Z,126.30
2019-02-21T23:32:46.283Z,155.10
2019-02-21T23:35:42.005Z,189.77
2019-02-21T23:38:37.611Z,262.35
2019-02-21T23:41:32.430Z,288.62
2019-02-21T23:44:27.513Z,275.13
2019-02-21T23:47:22.550Z,260.82
2019-02-21T23:50:17.328Z,243.45
2019-02-21T23:53:12.746Z,232.45
2019-02-21T23:56:08.513Z,210.35
2019-02-21T23:59:03.447Z,206.87
